Time;durP1;ratioP1;P1;durP2;ratioP2;P2;SDS_P1;SDS_P2;PMS_P1;PMS_P2;Temp;Humidity;BMP_temperature;BMP_pressure;BME280_temperature;BME280_humidity;BME280_pressure;Samples;Min_cycle;Max_cycle;Signal;HPM_P1;HPM_P2
2022/04/27 00:00:13;;;;;;;9.60;7.17;;;;;;;5.84;76.94;102190.88;5239827;28;20021;-80
2022/04/27 00:02:44;;;;;;;12.27;7.05;;;;;;;5.82;77.19;102192.50;5240049;28;20381;-80
2022/04/27 00:05:16;;;;;;;16.33;7.90;;;;;;;5.72;77.29;102189.63;5239128;28;20037;-79
2022/04/27 00:07:48;;;;;;;11.17;7.73;;;;;;;5.75;76.87;102195.75;5233092;28;20026;-79
2022/04/27 00:10:19;;;;;;;12.83;7.33;;;;;;;5.69;77.17;102190.41;5215607;28;20149;-80
2022/04/27 00:12:51;;;;;;;14.40;7.70;;;;;;;5.66;77.62;102192.88;5234635;28;20478;-80
2022/04/27 00:15:25;;;;;;;12.57;7.93;;;;;;;5.60;77.72;102190.13;5216191;28;20192;-80
2022/04/27 00:17:57;;;;;;;11.98;7.43;;;;;;;5.55;78.29;102187.38;5218676;28;20025;-81
2022/04/27 00:20:31;;;;;;;13.70;7.47;;;;;;;5.53;78.62;102190.78;5239456;28;20022;-80
2022/04/27 00:23:29;;;;;;;13.27;7.95;;;;;;;5.40;78.42;102176.59;5224835;28;20037;-80
2022/04/27 00:26:03;;;;;;;10.63;7.82;;;;;;;5.27;78.55;102173.63;5239297;28;20480;-79
2022/04/27 00:28:38;;;;;;;11.35;8.10;;;;;;;5.24;78.98;102176.09;5232500;28;20030;-79
2022/04/27 00:31:17;;;;;;;13.93;7.03;;;;;;;5.22;79.66;102182.06;5236992;28;20756;-78
2022/04/27 00:34:17;;;;;;;10.85;7.68;;;;;;;5.17;79.58;102188.78;5238096;28;20060;-79
2022/04/27 00:36:49;;;;;;;16.88;8.07;;;;;;;5.10;79.98;102180.84;5238199;28;20029;-81
2022/04/27 00:39:53;;;;;;;10.97;7.70;;;;;;;5.15;79.34;102193.03;5238448;28;20060;-78
2022/04/27 00:42:35;;;;;;;9.82;7.50;;;;;;;5.19;80.28;102198.34;5231114;28;20045;-82
2022/04/27 00:45:13;;;;;;;11.57;8.43;;;;;;;5.14;79.76;102192.16;5237985;28;20046;-80
2022/04/27 00:47:44;;;;;;;11.60;8.57;;;;;;;5.15;80.29;102191.31;5239401;28;20030;-80
2022/04/27 00:50:16;;;;;;;12.40;8.27;;;;;;;5.08;80.49;102195.41;5238609;28;20029;-82
2022/04/27 00:53:18;;;;;;;15.37;9.47;;;;;;;4.88;80.98;102180.97;5236623;28;20029;-81
2022/04/27 00:56:25;;;;;;;;;;;;;;;;;;;;;
2022/04/27 01:02:50;;;;;;;14.27;9.43;;;;;;;4.72;81.86;102184.75;5020359;29;20065;-80
2022/04/27 01:10:05;;;;;;;16.55;9.13;;;;;;;4.63;82.12;102182.72;5038165;29;20081;-80
2022/04/27 01:13:34;;;;;;;;;;;;;;;;;;;;;
2022/04/27 01:17:23;;;;;;;13.82;8.70;;;;;;;4.69;81.83;102195.84;5005461;29;20630;-79
2022/04/27 01:20:15;;;;;;;12.95;9.23;;;;;;;4.79;82.23;102211.66;4943771;30;20641;-78
2022/04/27 01:23:40;;;;;;;;;;;;;;;;;;;;;
2022/04/27 01:26:34;;;;;;;;;;;;;;;;;;;;;
2022/04/27 01:29:19;;;;;;;15.27;9.10;;;;;;;4.58;83.13;102212.69;4946878;29;20168;-82
2022/04/27 01:47:37;;;;;;;;;;;;;;;;;;;;;
2022/04/27 02:16:00;;;;;;;;;;;;;;;;;;;;;
2022/04/27 02:33:17;;;;;;;14.70;10.50;;;;;;;3.58;85.71;102227.06;4908423;30;20143;-79
2022/04/27 02:36:19;;;;;;;11.38;9.20;;;;;;;3.61;85.59;102230.63;4821047;30;20055;-81
2022/04/27 11:33:52;;;;;;;7.30;6.03;;;;;;;23.60;25.03;102466.16;5997675;24;20024;-81
2022/04/27 11:40:27;;;;;;;;;;;;;;;;;;;;;
2022/04/27 11:43:14;;;;;;;7.85;5.88;;;;;;;24.38;23.99;102464.59;6008607;24;20086;-80
2022/04/27 11:46:18;;;;;;;;;;;;;;;;;;;;;
2022/04/27 11:52:52;;;;;;;7.00;5.30;;;;;;;26.06;23.02;102474.47;6024014;24;20050;-81
2022/04/27 12:03:23;;;;;;;6.88;5.13;;;;;;;23.01;24.68;102464.03;6081322;24;20542;-78
2022/04/27 12:05:55;;;;;;;8.43;5.72;;;;;;;22.83;25.03;102471.78;6052987;24;20374;-80
2022/04/27 12:08:58;;;;;;;7.75;5.47;;;;;;;23.11;25.41;102457.47;6053115;24;20026;-81
2022/04/27 12:12:09;;;;;;;;;;;;;;;;;;;;;
2022/04/27 12:33:20;;;;;;;7.75;5.10;;;;;;;24.58;23.78;102441.53;5929745;25;20574;-79
2022/04/27 12:43:35;;;;;;;7.73;5.47;;;;;;;27.31;21.42;102446.38;6000243;24;20027;-80
2022/04/27 12:46:22;;;;;;;8.82;5.43;;;;;;;25.06;21.54;102450.84;5945346;25;20020;-79
2022/04/27 12:56:42;;;;;;;9.05;5.25;;;;;;;29.46;20.66;102437.56;6000518;24;20027;-81
2022/04/27 13:02:49;;;;;;;7.78;4.95;;;;;;;29.11;17.97;102437.19;6082243;24;20018;-80
2022/04/27 13:05:21;;;;;;;8.02;5.93;;;;;;;27.04;19.79;102433.56;6080891;24;20022;-80
2022/04/27 13:07:57;;;;;;;;;;;;;;;29.20;19.03;102439.28;6059217;24;20415;-81
2022/04/27 13:13:46;;;;;;;7.25;4.80;;;;;;;24.79;22.80;102437.00;6092758;24;20357;-82
2022/04/27 13:20:26;;;;;;;9.75;5.68;;;;;;;26.38;22.47;102421.97;6143315;24;20025;-82
2022/04/27 13:27:52;;;;;;;7.95;4.93;;;;;;;30.41;17.58;102418.53;6165920;24;20333;-81
2022/04/27 13:40:37;;;;;;;7.20;4.50;;;;;;;28.51;19.22;102401.63;6188335;23;20029;-80
2022/04/27 13:47:04;;;;;;;7.95;4.88;;;;;;;29.97;18.12;102407.25;6135521;24;20022;-80
2022/04/27 13:49:35;;;;;;;9.80;5.78;;;;;;;30.65;16.99;102396.22;6136231;24;20022;-80
2022/04/27 13:52:13;;;;;;;7.30;5.35;;;;;;;30.59;16.61;102402.03;6113569;24;20100;-81
2022/04/27 13:54:44;;;;;;;6.60;5.72;;;;;;;28.22;18.76;102390.03;6085800;24;20026;-81
2022/04/27 13:57:16;;;;;;;7.35;5.95;;;;;;;26.25;20.43;102407.56;6108325;24;20024;-79
2022/04/27 13:59:47;;;;;;;11.18;5.43;;;;;;;26.94;20.62;102394.91;6110542;24;20013;-80
2022/04/27 14:02:24;;;;;;;7.53;5.22;;;;;;;27.68;19.37;102397.78;6190103;23;20525;-81
2022/04/27 14:04:55;;;;;;;7.43;5.40;;;;;;;25.90;21.39;102378.19;6234419;23;20023;-79
2022/04/27 14:07:27;;;;;;;;;;;;;;;26.30;21.98;102391.28;6288138;23;20418;-80
2022/04/27 14:10:03;;;;;;;8.20;5.47;;;;;;;24.84;23.79;102388.78;6309071;23;19908;-81
2022/04/27 14:18:26;;;;;;;6.20;4.78;;;;;;;31.32;16.39;102382.25;6407958;23;20018;-80
2022/04/27 14:21:01;;;;;;;8.15;5.05;;;;;;;31.32;16.38;102390.34;6507951;22;20011;-80
2022/04/27 14:23:32;;;;;;;7.60;4.93;;;;;;;30.98;16.84;102382.13;6533426;22;20004;-80
2022/04/27 14:26:04;;;;;;;8.30;5.20;;;;;;;29.13;17.92;102381.56;6531758;22;20004;-81
2022/04/27 14:28:36;;;;;;;7.32;5.00;;;;;;;29.17;18.16;102387.56;6504303;22;20008;-81
2022/04/27 14:31:07;;;;;;;8.95;5.07;;;;;;;28.76;18.38;102370.56;6504080;22;20736;-80
2022/04/27 14:33:39;;;;;;;7.60;5.72;;;;;;;29.52;18.47;102371.78;6525669;22;20068;-80
2022/04/27 14:36:10;;;;;;;10.93;5.38;;;;;;;28.53;18.78;102372.88;6564059;22;20090;-80
2022/04/27 14:38:42;;;;;;;8.55;5.45;;;;;;;26.74;19.76;102369.25;6564413;22;20003;-80
2022/04/27 14:41:16;;;;;;;8.73;5.05;;;;;;;25.84;21.18;102363.34;6564994;22;20010;-80
2022/04/27 14:43:48;;;;;;;10.02;5.82;;;;;;;25.90;22.34;102372.00;6563476;22;20042;-79
2022/04/27 14:46:19;;;;;;;;;;;;;;;28.01;20.21;102370.78;6536061;22;20007;-79
2022/04/27 14:48:51;;;;;;;5.73;5.03;;;;;;;25.43;21.90;102360.16;6562410;22;20390;-79
2022/04/27 14:51:28;;;;;;;9.43;5.68;;;;;;;26.03;21.71;102359.72;6563184;22;20018;-81
2022/04/27 14:54:02;;;;;;;7.90;4.80;;;;;;;28.31;19.30;102357.28;6563553;22;20007;-81
2022/04/27 14:56:34;;;;;;;11.15;5.35;;;;;;;27.17;20.37;102374.84;6535354;22;20011;-81
2022/04/27 14:59:05;;;;;;;;;;;;;;;28.95;18.82;102378.28;6564059;22;20014;-80
2022/04/27 15:01:37;;;;;;;5.88;4.80;;;;;;;26.40;21.29;102379.13;6564405;22;19915;-79
2022/04/27 15:04:08;;;;;;;6.03;4.80;;;;;;;25.65;22.10;102366.13;6563345;22;20014;-79
2022/04/27 15:06:39;;;;;;;7.18;4.28;;;;;;;25.00;23.03;102379.13;6535630;22;20019;-80
2022/04/27 15:09:11;;;;;;;6.97;5.40;;;;;;;23.53;24.78;102371.50;6562874;22;20003;-79
2022/04/27 15:11:42;;;;;;;6.33;5.10;;;;;;;22.98;24.51;102377.25;6562535;22;20004;-79
2022/04/27 15:14:14;;;;;;;6.40;5.32;;;;;;;23.44;24.46;102370.09;6535100;22;20089;-79
2022/04/27 15:16:45;;;;;;;7.25;5.43;;;;;;;22.66;25.63;102374.06;6562470;22;20083;-79
2022/04/27 15:19:17;;;;;;;8.23;5.68;;;;;;;22.77;24.93;102361.22;6535013;22;20067;-81
2022/04/27 15:24:38;;;;;;;9.13;5.43;;;;;;;25.67;22.44;102374.06;6563497;22;20246;-80
2022/04/27 15:27:11;;;;;;;7.95;5.43;;;;;;;26.65;20.16;102351.94;6562932;22;20007;-80
2022/04/27 15:29:44;;;;;;;11.30;5.97;;;;;;;29.19;19.20;102362.41;6534478;22;20019;-80
2022/04/27 15:32:15;;;;;;;8.68;5.05;;;;;;;28.88;18.80;102356.34;6534199;22;20064;-80
2022/04/27 15:34:50;;;;;;;;;;;;;;;31.49;17.37;102364.78;6563648;22;20358;-81
2022/04/27 15:37:21;;;;;;;7.35;5.00;;;;;;;30.74;17.21;102357.84;6535559;22;20302;-80
2022/04/27 15:39:52;;;;;;;;;;;;;;;30.72;17.03;102373.28;6563629;22;20010;-80
2022/04/27 15:42:24;;;;;;;8.13;4.73;;;;;;;28.77;18.39;102374.09;6563695;22;19911;-81
2022/04/27 15:44:56;;;;;;;;;;;;;;;31.23;17.38;102367.66;6537095;22;20495;-79
2022/04/27 15:47:27;;;;;;;6.70;5.13;;;;;;;28.81;19.04;102360.38;6562324;22;19918;-79
2022/04/27 15:49:59;;;;;;;6.38;4.90;;;;;;;27.62;19.13;102362.38;6562246;22;20015;-80
2022/04/27 15:52:33;;;;;;;7.45;5.00;;;;;;;27.09;20.26;102374.41;6561296;22;20033;-80
2022/04/27 15:55:06;;;;;;;10.15;6.20;;;;;;;26.56;20.71;102371.13;6562019;22;20007;-79
2022/04/27 15:57:40;;;;;;;6.65;4.70;;;;;;;28.43;20.11;102373.56;6534099;22;20007;-79
2022/04/27 16:00:35;;;;;;;7.30;5.25;;;;;;;29.02;19.21;102368.00;6560855;22;20010;-79
2022/04/27 16:03:06;;;;;;;8.38;5.47;;;;;;;27.14;19.46;102360.78;6560108;22;20015;-80
2022/04/27 16:05:40;;;;;;;;;;;;;;;27.83;20.40;102370.94;6562395;22;20009;-79
2022/04/27 16:08:16;;;;;;;8.55;5.55;;;;;;;25.36;22.13;102356.94;6534359;22;19911;-80
2022/04/27 16:10:47;;;;;;;7.18;4.80;;;;;;;26.30;22.00;102359.19;6561748;22;20003;-79
2022/04/27 16:13:24;;;;;;;;;;;;;;;29.16;19.03;102377.78;6534229;22;20332;-79
2022/04/27 16:15:55;;;;;;;6.72;4.65;;;;;;;29.21;18.60;102356.91;6561440;22;19980;-79
2022/04/27 16:18:27;;;;;;;;;;;;;;;30.76;17.88;102369.34;6534856;22;20007;-79
2022/04/27 16:23:51;;;;;;;6.82;4.85;;;;;;;27.67;20.24;102366.63;6562413;22;20007;-81
2022/04/27 16:26:25;;;;;;;7.32;4.70;;;;;;;26.86;20.83;102355.19;6562283;22;20057;-81
2022/04/27 16:29:00;;;;;;;7.40;5.05;;;;;;;27.94;19.59;102375.69;6561680;22;20087;-79
2022/04/27 16:31:34;;;;;;;8.57;4.63;;;;;;;27.25;20.62;102366.38;6562430;22;20345;-80
2022/04/27 16:34:12;;;;;;;7.68;5.28;;;;;;;26.99;20.75;102375.91;6562093;22;20042;-79
2022/04/27 16:36:44;;;;;;;10.18;5.05;;;;;;;26.26;21.18;102382.56;6535740;22;20462;-79
2022/04/27 16:39:15;;;;;;;;;;;;;;;29.43;19.15;102384.03;6562775;22;20034;-81
2022/04/27 16:41:47;;;;;;;9.65;5.22;;;;;;;27.20;20.27;102384.50;6562170;22;20275;-81
2022/04/27 16:44:20;;;;;;;;;;;;;;;28.41;19.54;102388.91;6563223;22;20417;-79
2022/04/27 16:47:11;;;;;;;8.88;4.60;;;;;;;26.38;21.62;102375.69;6564051;22;20213;-82
2022/04/27 16:49:43;;;;;;;7.65;5.32;;;;;;;25.31;22.36;102391.00;6533732;22;20097;-80
2022/04/27 16:52:14;;;;;;;8.50;5.60;;;;;;;24.50;22.96;102391.22;6534465;22;20023;-82
2022/04/27 16:54:49;;;;;;;8.65;5.65;;;;;;;24.48;23.07;102377.09;6562989;22;20417;-79
2022/04/27 16:57:23;;;;;;;7.80;4.75;;;;;;;23.62;24.38;102381.75;6563090;22;20074;-79
2022/04/27 17:00:52;;;;;;;6.78;5.15;;;;;;;23.21;25.00;102380.81;6563236;22;20003;-81
2022/04/27 17:02:46;;;;;;;8.05;6.28;;;;;;;23.67;25.00;102377.09;6562659;22;20391;-81
2022/04/27 17:05:18;;;;;;;;;;;;;;;25.37;23.15;102395.16;6562657;22;20004;-82
2022/04/27 17:07:50;;;;;;;6.47;4.90;;;;;;;24.89;23.52;102389.44;6561047;22;20377;-80
2022/04/27 17:10:28;;;;;;;7.90;5.00;;;;;;;25.01;23.66;102372.84;6562167;22;20371;-79
2022/04/27 17:13:06;;;;;;;7.72;5.20;;;;;;;23.88;24.55;102382.47;6562027;22;20317;-79
2022/04/27 17:15:43;;;;;;;7.35;4.75;;;;;;;24.60;23.58;102381.03;6564056;22;20008;-80
2022/04/27 17:18:27;;;;;;;9.52;4.75;;;;;;;24.95;23.74;102394.47;6563554;22;20387;-84
2022/04/27 17:20:59;;;;;;;9.10;4.85;;;;;;;24.40;24.32;102389.91;6562215;22;20007;-79
2022/04/27 17:23:30;;;;;;;10.88;6.55;;;;;;;23.09;25.51;102396.34;6562632;22;20030;-78
2022/04/27 17:28:53;;;;;;;7.30;3.88;;;;;;;21.51;28.10;102396.75;6562645;22;20015;-79
2022/04/27 17:31:24;;;;;;;9.35;4.15;;;;;;;22.21;27.83;102399.59;6562738;22;20007;-81
2022/04/27 17:33:56;;;;;;;7.68;3.95;;;;;;;21.98;27.37;102395.13;6562103;22;20081;-79
2022/04/27 17:36:27;;;;;;;7.75;4.40;;;;;;;21.87;27.35;102396.44;6562443;22;20011;-79
2022/04/27 17:39:02;;;;;;;12.17;5.00;;;;;;;22.10;27.34;102401.78;6562691;22;20007;-80
2022/04/27 17:41:34;;;;;;;6.47;3.47;;;;;;;20.58;29.15;102399.56;6563736;22;20012;-80
2022/04/27 17:44:05;;;;;;;7.07;4.60;;;;;;;21.00;29.55;102407.16;6564289;22;20011;-80
2022/04/27 17:46:37;;;;;;;8.20;3.70;;;;;;;19.77;31.76;102411.47;6566228;22;20494;-81
2022/04/27 17:49:09;;;;;;;5.20;3.22;;;;;;;18.94;33.46;102403.69;6563110;22;19999;-81
2022/04/27 17:51:40;;;;;;;11.98;4.07;;;;;;;18.89;32.76;102405.56;6561867;22;20065;-80
2022/04/27 17:54:12;;;;;;;6.93;3.97;;;;;;;18.28;34.38;102409.44;6563265;22;20313;-79
2022/04/27 17:56:43;;;;;;;6.30;3.43;;;;;;;18.00;35.81;102412.56;6564806;22;20003;-80
2022/04/27 17:59:15;;;;;;;9.03;3.90;;;;;;;17.63;36.06;102414.06;6564588;22;20168;-81
2022/04/27 18:01:46;;;;;;;7.87;3.33;;;;;;;17.04;37.44;102421.09;6563178;22;20086;-81
2022/04/27 18:04:18;;;;;;;11.40;4.13;;;;;;;16.90;37.96;102432.66;6564119;22;20750;-79
2022/04/27 18:06:51;;;;;;;8.53;3.77;;;;;;;16.64;38.77;102438.22;6564015;22;20983;-82
2022/04/27 18:09:24;;;;;;;10.10;3.80;;;;;;;16.57;39.36;102428.66;6564727;22;20008;-79
2022/04/27 18:11:57;;;;;;;9.50;4.20;;;;;;;16.75;39.37;102425.81;6563586;22;20625;-79
2022/04/27 18:14:32;;;;;;;7.75;4.38;;;;;;;16.57;39.34;102433.94;6563504;22;20011;-79
2022/04/27 18:17:03;;;;;;;11.05;3.63;;;;;;;16.60;39.06;102454.97;6563529;22;20089;-80
2022/04/27 18:19:35;;;;;;;7.50;3.30;;;;;;;16.13;40.05;102437.88;6563364;22;20006;-79
2022/04/27 18:22:07;;;;;;;7.03;3.07;;;;;;;15.98;40.73;102452.06;6563027;22;20416;-80
2022/04/27 18:24:39;;;;;;;11.68;4.70;;;;;;;15.48;41.29;102452.41;6561338;22;20014;-80
2022/04/27 18:27:10;;;;;;;6.53;3.23;;;;;;;15.38;41.93;102455.97;6563488;22;20417;-79
2022/04/27 18:29:42;;;;;;;9.47;3.70;;;;;;;15.31;42.78;102449.91;6562740;22;20090;-79
2022/04/27 18:32:17;;;;;;;13.20;3.90;;;;;;;14.74;43.60;102452.78;6563662;22;20034;-80
2022/04/27 18:34:52;;;;;;;8.35;3.28;;;;;;;14.95;43.03;102453.56;6563595;22;20000;-80
2022/04/27 18:37:24;;;;;;;9.38;4.65;;;;;;;14.66;43.88;102453.69;6564254;22;19999;-79
2022/04/27 18:39:55;;;;;;;10.53;3.70;;;;;;;14.56;44.49;102458.06;6563362;22;20007;-80
2022/04/27 18:42:27;;;;;;;9.53;4.10;;;;;;;14.38;44.41;102458.97;6562736;22;20061;-80
2022/04/27 18:49:57;;;;;;;8.52;3.90;;;;;;;14.22;45.11;102469.47;6562435;22;20019;-81
2022/04/27 18:50:58;;;;;;;9.23;3.85;;;;;;;13.86;45.86;102460.75;6566387;22;20011;-78
2022/04/27 18:53:33;;;;;;;9.67;4.47;;;;;;;13.59;46.68;102468.59;6569173;22;20010;-79
2022/04/27 18:56:04;;;;;;;9.00;3.72;;;;;;;13.30;47.41;102472.88;6540306;22;19999;-78
2022/04/27 18:58:36;;;;;;;13.80;7.57;;;;;;;13.09;48.19;102475.44;6565110;22;20030;-81
2022/04/27 19:01:10;;;;;;;14.83;5.13;;;;;;;12.96;48.99;102498.06;6561246;22;20492;-79
2022/04/27 19:03:46;;;;;;;8.85;4.30;;;;;;;12.85;48.96;102471.81;6562646;22;20007;-81
2022/04/27 19:06:24;;;;;;;14.98;7.40;;;;;;;13.08;48.79;102486.75;6562407;22;20336;-81
2022/04/27 19:08:58;;;;;;;7.75;4.13;;;;;;;12.69;49.34;102488.31;6563263;22;20192;-79
2022/04/27 19:11:31;;;;;;;11.63;3.28;;;;;;;12.57;50.07;102496.94;6562723;22;20353;-79
2022/04/27 19:14:04;;;;;;;10.93;4.03;;;;;;;12.37;50.06;102500.31;6534486;22;20408;-80
2022/04/27 19:16:41;;;;;;;10.63;5.68;;;;;;;12.33;50.45;102500.25;6533697;22;20057;-81
2022/04/27 19:19:47;;;;;;;10.77;7.55;;;;;;;11.93;50.84;102500.84;6563978;22;20010;-80
2022/04/27 19:22:34;;;;;;;9.35;3.70;;;;;;;11.66;51.65;102515.34;6537153;22;20022;-80
2022/04/27 19:25:12;;;;;;;9.30;3.60;;;;;;;12.19;50.74;102503.66;6563908;22;20105;-82
2022/04/27 19:28:28;;;;;;;8.70;4.90;;;;;;;12.16;49.79;102526.28;6536057;22;20000;-81
2022/04/27 19:32:03;;;;;;;10.98;3.60;;;;;;;11.52;51.37;102516.91;6564846;22;20007;-81
2022/04/27 19:34:25;;;;;;;11.80;4.30;;;;;;;11.84;51.19;102529.44;6559398;22;20023;-81
2022/04/27 19:40:14;;;;;;;12.25;3.50;;;;;;;11.49;51.24;102536.06;6564404;22;20019;-81
2022/04/27 19:43:14;;;;;;;14.15;4.13;;;;;;;11.56;51.29;102538.72;6465097;23;20063;-81
2022/04/27 19:49:48;;;;;;;12.48;4.00;;;;;;;11.04;52.87;102529.38;6402919;23;20119;-80
2022/04/27 19:56:28;;;;;;;10.82;4.47;;;;;;;10.87;53.16;102531.78;6223027;23;20016;-81
2022/04/27 19:59:34;;;;;;;16.92;4.40;;;;;;;11.46;51.46;102543.84;6228166;23;20023;-81
2022/04/27 20:02:33;;;;;;;13.60;4.20;;;;;;;11.09;52.96;102532.97;6223758;24;20040;-80
2022/04/27 20:06:09;;;;;;;;;;;;;;;;;;;;;
2022/04/27 20:13:27;;;;;;;10.23;4.32;;;;;;;10.71;53.35;102543.72;6135812;24;20021;-81
2022/04/27 20:33:09;;;;;;;17.92;6.60;;;;;;;10.12;56.58;102575.75;6047326;24;20031;-78
2022/04/27 20:35:41;;;;;;;11.93;4.37;;;;;;;10.39;56.17;102571.91;6049586;24;20019;-79
2022/04/27 20:38:13;;;;;;;11.50;3.85;;;;;;;10.08;56.39;102584.38;6050474;24;20049;-79
2022/04/27 20:40:45;;;;;;;16.20;4.93;;;;;;;9.92;57.01;102584.91;6050608;24;20111;-84
2022/04/27 20:43:16;;;;;;;14.80;3.70;;;;;;;10.26;56.45;102576.00;6052431;24;20022;-80
2022/04/27 20:45:48;;;;;;;12.03;3.70;;;;;;;9.92;56.89;102585.81;6053578;24;20153;-77
2022/04/27 20:48:20;;;;;;;12.02;3.45;;;;;;;10.10;57.15;102585.28;6130836;23;20011;-79
2022/04/27 20:50:52;;;;;;;13.20;5.77;;;;;;;9.93;57.16;102592.75;6281469;23;20018;-78
2022/04/27 20:53:23;;;;;;;9.60;3.60;;;;;;;9.67;57.72;102595.75;6282930;23;20252;-78
2022/04/27 20:55:54;;;;;;;13.50;4.20;;;;;;;9.79;57.96;102591.66;6301665;23;20021;-77
2022/04/27 20:58:26;;;;;;;6.80;3.60;;;;;;;9.66;58.20;102596.59;6341302;23;20101;-79
2022/04/27 21:00:57;;;;;;;13.37;4.30;;;;;;;9.58;58.63;102597.28;6352563;23;20009;-77
2022/04/27 21:03:28;;;;;;;13.87;5.37;;;;;;;9.35;58.88;102600.28;6497225;22;20011;-79
2022/04/27 21:06:00;;;;;;;12.00;4.17;;;;;;;9.49;59.06;102605.78;6530671;22;20050;-80
2022/04/27 21:08:31;;;;;;;12.33;4.70;;;;;;;9.32;59.13;102602.81;6530528;22;20008;-80
2022/04/27 21:11:03;;;;;;;16.57;4.77;;;;;;;9.43;58.88;102601.31;6532029;22;20324;-79
2022/04/27 21:13:35;;;;;;;12.80;3.88;;;;;;;9.25;59.40;102606.16;6531451;22;20004;-83
2022/04/27 21:16:06;;;;;;;16.00;7.00;;;;;;;9.52;59.07;102608.47;6531330;22;20008;-82
2022/04/27 21:18:38;;;;;;;12.33;4.67;;;;;;;9.17;60.07;102605.97;6530974;22;20007;-78
2022/04/27 21:21:10;;;;;;;13.87;4.50;;;;;;;9.09;59.86;102604.94;6530822;22;20003;-81
2022/04/27 21:23:42;;;;;;;19.38;7.38;;;;;;;9.43;59.36;102610.88;6530365;22;20004;-79
2022/04/27 21:26:13;;;;;;;15.40;5.13;;;;;;;9.34;59.59;102614.16;6531722;22;20421;-80
2022/04/27 21:28:46;;;;;;;8.27;4.10;;;;;;;9.35;59.99;102608.09;6532309;22;20007;-79
2022/04/27 21:31:17;;;;;;;16.58;6.00;;;;;;;9.12;60.13;102616.28;6531141;22;20003;-77
2022/04/27 21:33:49;;;;;;;18.23;10.43;;;;;;;9.20;59.85;102612.97;6549621;22;20085;-81
2022/04/27 21:36:20;;;;;;;39.50;25.03;;;;;;;9.15;60.49;102617.22;6564204;22;20003;-80
2022/04/27 21:38:52;;;;;;;14.60;6.20;;;;;;;9.19;60.23;102622.47;6564521;22;20007;-76
2022/04/27 21:41:23;;;;;;;12.97;7.20;;;;;;;9.11;60.45;102614.53;6563924;22;20066;-79
2022/04/27 21:43:55;;;;;;;34.67;20.70;;;;;;;8.96;60.46;102621.97;6564421;22;20323;-76
2022/04/27 21:46:26;;;;;;;15.43;6.03;;;;;;;9.02;61.07;102622.13;6563073;22;20010;-78
2022/04/27 21:48:58;;;;;;;15.30;7.00;;;;;;;9.09;60.56;102630.94;6563148;22;20336;-77
2022/04/27 21:51:31;;;;;;;11.73;5.45;;;;;;;8.96;61.08;102632.38;6563884;22;20007;-75
2022/04/27 21:54:02;;;;;;;16.13;9.68;;;;;;;8.73;61.53;102626.63;6535114;22;20485;-75
2022/04/27 21:56:34;;;;;;;13.67;4.80;;;;;;;8.68;61.67;102628.25;6561567;22;20057;-77
2022/04/27 21:59:05;;;;;;;11.83;4.77;;;;;;;8.65;62.13;102631.63;6562354;22;20008;-78
2022/04/27 22:01:37;;;;;;;10.20;4.30;;;;;;;8.65;61.97;102639.44;6562405;22;20018;-80
2022/04/27 22:04:18;;;;;;;10.37;5.20;;;;;;;8.45;62.62;102638.91;6562627;22;20417;-73
2022/04/27 22:06:55;;;;;;;15.25;6.10;;;;;;;8.27;62.99;102636.69;6561541;22;20007;-77
2022/04/27 22:09:30;;;;;;;21.20;10.52;;;;;;;8.35;62.88;102634.28;6561409;22;20447;-78
2022/04/27 22:12:02;;;;;;;32.42;18.10;;;;;;;8.53;62.54;102647.81;6562653;22;20009;-76
2022/04/27 22:14:34;;;;;;;20.17;10.87;;;;;;;8.35;63.06;102645.56;6563820;22;20007;-80
2022/04/27 22:17:05;;;;;;;17.77;7.83;;;;;;;8.19;63.76;102643.41;6563694;22;20009;-77
2022/04/27 22:19:37;;;;;;;14.90;6.00;;;;;;;8.17;63.50;102648.56;6561333;22;20981;-79
2022/04/27 22:22:10;;;;;;;41.70;20.85;;;;;;;8.21;63.67;102649.50;6560908;22;20059;-80
2022/04/27 22:24:41;;;;;;;;;;;;;;;8.24;60.99;102657.38;6561974;22;20027;-78
2022/04/27 22:27:12;;;;;;;12.45;5.63;;;;;;;7.97;64.00;102652.31;6562856;22;19933;-78
2022/04/27 22:29:44;;;;;;;19.10;6.70;;;;;;;7.88;64.74;102658.16;6563135;22;20052;-77
2022/04/27 22:32:16;;;;;;;13.20;5.03;;;;;;;7.82;65.08;102657.97;6561464;22;20193;-79
2022/04/27 22:34:50;;;;;;;15.60;5.68;;;;;;;7.80;65.10;102664.84;6561220;22;20011;-79
2022/04/27 22:37:22;;;;;;;16.58;5.88;;;;;;;7.80;65.36;102657.03;6562470;22;20003;-76
2022/04/27 22:39:53;;;;;;;16.47;6.43;;;;;;;7.72;65.39;102661.13;6562932;22;20006;-77
2022/04/27 22:42:25;;;;;;;12.37;5.03;;;;;;;7.57;66.01;102669.38;6563594;22;20011;-77
2022/04/27 22:44:56;;;;;;;13.10;6.60;;;;;;;7.51;66.18;102667.44;6563565;22;20100;-80
2022/04/27 22:47:28;;;;;;;11.93;4.77;;;;;;;7.51;66.24;102679.56;6563264;22;20084;-80
2022/04/27 22:49:59;;;;;;;16.17;5.60;;;;;;;7.46;66.43;102674.22;6564845;22;20006;-77
2022/04/27 22:52:31;;;;;;;11.97;5.03;;;;;;;7.36;66.42;102669.56;6563003;22;20067;-78
2022/04/27 22:55:03;;;;;;;10.53;4.87;;;;;;;7.34;66.72;102674.75;6562766;22;20022;-78
2022/04/27 22:57:35;;;;;;;14.43;5.53;;;;;;;7.33;67.35;102679.88;6561348;22;20127;-77
2022/04/27 23:00:07;;;;;;;19.40;5.60;;;;;;;7.26;67.28;102671.00;6561870;22;20011;-76
2022/04/27 23:02:39;;;;;;;15.18;5.85;;;;;;;7.07;67.34;102690.31;6562298;22;20011;-75
2022/04/27 23:05:10;;;;;;;14.27;5.57;;;;;;;7.02;67.94;102687.56;6562629;22;20506;-75
2022/04/27 23:13:25;;;;;;;13.85;5.82;;;;;;;6.94;68.43;102687.31;6562763;22;20011;-76
2022/04/27 23:15:57;;;;;;;13.27;6.43;;;;;;;6.88;68.74;102687.09;6562288;22;19999;-76
2022/04/27 23:18:28;;;;;;;12.50;6.07;;;;;;;6.83;69.18;102688.66;6563070;22;20003;-76
2022/04/27 23:21:01;;;;;;;14.17;5.33;;;;;;;6.88;68.83;102687.09;6534250;22;20539;-75
2022/04/27 23:23:33;;;;;;;;;;;;;;;6.94;66.09;102683.84;6563229;22;20082;-76
2022/04/27 23:26:05;;;;;;;13.13;5.93;;;;;;;6.88;68.81;102684.50;6562971;22;19942;-77
2022/04/27 23:28:37;;;;;;;15.65;6.18;;;;;;;6.78;69.20;102685.03;6562578;22;20114;-78
2022/04/27 23:31:09;;;;;;;18.00;5.97;;;;;;;6.75;69.50;102682.34;6563833;22;20003;-77
2022/04/27 23:33:40;;;;;;;20.77;6.60;;;;;;;6.66;69.43;102690.66;6563034;22;20022;-78
2022/04/27 23:36:12;;;;;;;14.10;5.53;;;;;;;6.73;69.57;102689.19;6563682;22;20009;-77
2022/04/27 23:38:43;;;;;;;13.63;6.33;;;;;;;6.57;69.68;102683.47;6560445;22;20058;-78
2022/04/27 23:41:15;;;;;;;11.73;6.37;;;;;;;6.55;70.02;102689.44;6560922;22;20014;-80
2022/04/27 23:43:46;;;;;;;15.13;6.30;;;;;;;6.40;70.14;102684.59;6563024;22;20034;-77
2022/04/27 23:46:18;;;;;;;12.40;6.70;;;;;;;6.38;70.62;102691.44;6563621;22;20501;-77
2022/04/27 23:48:49;;;;;;;12.77;6.20;;;;;;;6.36;70.58;102693.09;6562951;22;20064;-77
2022/04/27 23:51:21;;;;;;;12.73;6.27;;;;;;;6.31;70.67;102692.03;6563770;22;20548;-77
2022/04/27 23:53:52;;;;;;;14.50;6.07;;;;;;;6.39;70.55;102693.19;6562430;22;20003;-78
2022/04/27 23:56:24;;;;;;;12.60;6.60;;;;;;;6.40;70.37;102692.38;6563170;22;19999;-77
2022/04/27 23:58:55;;;;;;;16.17;7.17;;;;;;;6.28;70.39;102689.34;6563280;22;20408;-78
